sensor_id;sensor_type;location;lat;lon;timestamp;P1;durP1;ratioP1;P2;durP2;ratioP2
75367;SDS011;63954;51.948;5.888;2023-02-04T00:01:09;14.85;;;1.77;;
75367;SDS011;63954;51.948;5.888;2023-02-04T00:03:38;11.63;;;1.30;;
75367;SDS011;63954;51.948;5.888;2023-02-04T00:06:06;14.40;;;1.75;;
75367;SDS011;63954;51.948;5.888;2023-02-04T00:08:33;9.55;;;1.38;;
75367;SDS011;63954;51.948;5.888;2023-02-04T00:11:02;12.82;;;2.13;;
75367;SDS011;63954;51.948;5.888;2023-02-04T00:13:29;11.48;;;1.35;;
75367;SDS011;63954;51.948;5.888;2023-02-04T00:15:56;17.60;;;1.77;;
75367;SDS011;63954;51.948;5.888;2023-02-04T00:18:25;11.27;;;2.10;;
75367;SDS011;63954;51.948;5.888;2023-02-04T00:20:54;5.35;;;0.60;;
75367;SDS011;63954;51.948;5.888;2023-02-04T00:23:21;6.72;;;0.80;;
75367;SDS011;63954;51.948;5.888;2023-02-04T00:25:48;6.72;;;0.47;;
75367;SDS011;63954;51.948;5.888;2023-02-04T00:28:15;12.15;;;1.55;;
75367;SDS011;63954;51.948;5.888;2023-02-04T00:30:43;11.93;;;3.00;;
75367;SDS011;63954;51.948;5.888;2023-02-04T00:33:11;16.35;;;1.63;;
75367;SDS011;63954;51.948;5.888;2023-02-04T00:35:41;13.18;;;3.03;;
75367;SDS011;63954;51.948;5.888;2023-02-04T00:38:08;9.60;;;1.10;;
75367;SDS011;63954;51.948;5.888;2023-02-04T00:40:35;11.30;;;2.22;;
75367;SDS011;63954;51.948;5.888;2023-02-04T00:43:03;11.63;;;2.67;;
75367;SDS011;63954;51.948;5.888;2023-02-04T00:45:31;7.40;;;0.57;;
75367;SDS011;63954;51.948;5.888;2023-02-04T00:47:58;10.77;;;1.23;;
75367;SDS011;63954;51.948;5.888;2023-02-04T00:50:25;9.77;;;1.13;;
75367;SDS011;63954;51.948;5.888;2023-02-04T00:52:54;7.43;;;0.80;;
75367;SDS011;63954;51.948;5.888;2023-02-04T00:55:22;8.57;;;1.15;;
75367;SDS011;63954;51.948;5.888;2023-02-04T00:57:49;10.65;;;1.83;;
75367;SDS011;63954;51.948;5.888;2023-02-04T01:00:16;14.85;;;2.42;;
75367;SDS011;63954;51.948;5.888;2023-02-04T01:02:44;14.27;;;1.85;;
75367;SDS011;63954;51.948;5.888;2023-02-04T01:05:11;10.25;;;1.00;;
75367;SDS011;63954;51.948;5.888;2023-02-04T01:07:38;5.88;;;0.80;;
75367;SDS011;63954;51.948;5.888;2023-02-04T01:10:06;13.93;;;1.45;;
75367;SDS011;63954;51.948;5.888;2023-02-04T01:12:34;10.80;;;0.73;;
75367;SDS011;63954;51.948;5.888;2023-02-04T01:15:01;10.57;;;1.05;;
75367;SDS011;63954;51.948;5.888;2023-02-04T01:17:30;5.57;;;0.77;;
75367;SDS011;63954;51.948;5.888;2023-02-04T01:19:57;8.80;;;1.52;;
75367;SDS011;63954;51.948;5.888;2023-02-04T01:22:24;12.82;;;1.60;;
75367;SDS011;63954;51.948;5.888;2023-02-04T01:24:51;13.00;;;1.60;;
75367;SDS011;63954;51.948;5.888;2023-02-04T01:27:39;5.72;;;0.57;;
75367;SDS011;63954;51.948;5.888;2023-02-04T01:30:06;13.80;;;1.90;;
75367;SDS011;63954;51.948;5.888;2023-02-04T01:32:35;12.32;;;1.25;;
75367;SDS011;63954;51.948;5.888;2023-02-04T01:35:02;13.02;;;1.45;;
75367;SDS011;63954;51.948;5.888;2023-02-04T01:37:29;10.23;;;1.17;;
75367;SDS011;63954;51.948;5.888;2023-02-04T01:39:56;12.68;;;1.00;;
75367;SDS011;63954;51.948;5.888;2023-02-04T01:42:24;14.82;;;2.30;;
75367;SDS011;63954;51.948;5.888;2023-02-04T01:44:52;15.18;;;1.42;;
75367;SDS011;63954;51.948;5.888;2023-02-04T01:47:20;11.02;;;0.90;;
75367;SDS011;63954;51.948;5.888;2023-02-04T01:49:49;11.05;;;1.58;;
75367;SDS011;63954;51.948;5.888;2023-02-04T01:52:18;10.70;;;1.08;;
75367;SDS011;63954;51.948;5.888;2023-02-04T01:54:45;7.60;;;1.00;;
75367;SDS011;63954;51.948;5.888;2023-02-04T01:57:13;8.40;;;0.80;;
75367;SDS011;63954;51.948;5.888;2023-02-04T01:59:43;11.40;;;1.40;;
75367;SDS011;63954;51.948;5.888;2023-02-04T02:05:06;10.40;;;1.30;;
75367;SDS011;63954;51.948;5.888;2023-02-04T02:07:34;10.18;;;1.48;;
75367;SDS011;63954;51.948;5.888;2023-02-04T02:10:02;8.25;;;0.95;;
75367;SDS011;63954;51.948;5.888;2023-02-04T02:12:30;4.78;;;0.55;;
75367;SDS011;63954;51.948;5.888;2023-02-04T02:14:58;12.48;;;1.27;;
75367;SDS011;63954;51.948;5.888;2023-02-04T02:17:26;8.43;;;1.02;;
75367;SDS011;63954;51.948;5.888;2023-02-04T02:19:54;12.57;;;1.40;;
75367;SDS011;63954;51.948;5.888;2023-02-04T02:22:22;11.48;;;1.33;;
75367;SDS011;63954;51.948;5.888;2023-02-04T02:24:55;14.57;;;3.08;;
75367;SDS011;63954;51.948;5.888;2023-02-04T02:27:22;9.63;;;1.65;;
75367;SDS011;63954;51.948;5.888;2023-02-04T02:29:50;10.80;;;1.10;;
75367;SDS011;63954;51.948;5.888;2023-02-04T02:32:17;11.95;;;1.23;;
75367;SDS011;63954;51.948;5.888;2023-02-04T02:34:45;6.75;;;1.02;;
75367;SDS011;63954;51.948;5.888;2023-02-04T02:37:12;11.77;;;1.65;;
75367;SDS011;63954;51.948;5.888;2023-02-04T02:39:40;11.27;;;1.35;;
75367;SDS011;63954;51.948;5.888;2023-02-04T02:42:13;7.63;;;1.08;;
75367;SDS011;63954;51.948;5.888;2023-02-04T02:44:42;9.02;;;1.35;;
75367;SDS011;63954;51.948;5.888;2023-02-04T02:47:11;13.75;;;1.70;;
75367;SDS011;63954;51.948;5.888;2023-02-04T02:49:40;16.17;;;2.60;;
75367;SDS011;63954;51.948;5.888;2023-02-04T02:52:09;8.85;;;1.52;;
75367;SDS011;63954;51.948;5.888;2023-02-04T02:54:38;12.07;;;1.85;;
75367;SDS011;63954;51.948;5.888;2023-02-04T02:57:09;20.35;;;2.50;;
75367;SDS011;63954;51.948;5.888;2023-02-04T02:59:39;12.85;;;1.27;;
75367;SDS011;63954;51.948;5.888;2023-02-04T03:02:07;13.48;;;1.85;;
75367;SDS011;63954;51.948;5.888;2023-02-04T03:04:37;10.73;;;1.75;;
75367;SDS011;63954;51.948;5.888;2023-02-04T03:07:08;10.93;;;0.82;;
75367;SDS011;63954;51.948;5.888;2023-02-04T03:09:36;9.15;;;1.38;;
75367;SDS011;63954;51.948;5.888;2023-02-04T03:12:04;6.55;;;1.10;;
75367;SDS011;63954;51.948;5.888;2023-02-04T03:14:33;9.75;;;1.27;;
75367;SDS011;63954;51.948;5.888;2023-02-04T03:19:31;9.18;;;1.98;;
75367;SDS011;63954;51.948;5.888;2023-02-04T03:24:28;5.88;;;1.13;;
75367;SDS011;63954;51.948;5.888;2023-02-04T03:26:56;14.18;;;2.00;;
75367;SDS011;63954;51.948;5.888;2023-02-04T03:29:23;9.70;;;1.45;;
75367;SDS011;63954;51.948;5.888;2023-02-04T03:31:51;8.45;;;1.02;;
75367;SDS011;63954;51.948;5.888;2023-02-04T03:34:21;10.50;;;1.60;;
75367;SDS011;63954;51.948;5.888;2023-02-04T03:36:48;11.27;;;1.27;;
75367;SDS011;63954;51.948;5.888;2023-02-04T03:39:16;9.40;;;1.05;;
75367;SDS011;63954;51.948;5.888;2023-02-04T03:41:43;14.90;;;1.77;;
75367;SDS011;63954;51.948;5.888;2023-02-04T03:44:10;18.48;;;2.25;;
75367;SDS011;63954;51.948;5.888;2023-02-04T03:46:37;9.63;;;1.30;;
75367;SDS011;63954;51.948;5.888;2023-02-04T03:49:04;6.18;;;1.23;;
75367;SDS011;63954;51.948;5.888;2023-02-04T03:51:33;11.30;;;1.65;;
75367;SDS011;63954;51.948;5.888;2023-02-04T03:54:00;9.95;;;0.98;;
75367;SDS011;63954;51.948;5.888;2023-02-04T03:56:28;9.82;;;1.60;;
75367;SDS011;63954;51.948;5.888;2023-02-04T03:58:55;11.98;;;1.20;;
75367;SDS011;63954;51.948;5.888;2023-02-04T04:01:22;9.95;;;2.97;;
75367;SDS011;63954;51.948;5.888;2023-02-04T04:03:49;13.65;;;2.17;;
75367;SDS011;63954;51.948;5.888;2023-02-04T04:06:17;10.20;;;1.25;;
75367;SDS011;63954;51.948;5.888;2023-02-04T04:08:45;13.52;;;2.10;;
75367;SDS011;63954;51.948;5.888;2023-02-04T04:11:13;16.23;;;2.90;;
75367;SDS011;63954;51.948;5.888;2023-02-04T04:13:41;19.33;;;2.25;;
75367;SDS011;63954;51.948;5.888;2023-02-04T04:16:08;12.38;;;1.45;;
75367;SDS011;63954;51.948;5.888;2023-02-04T04:18:35;12.88;;;1.70;;
75367;SDS011;63954;51.948;5.888;2023-02-04T04:21:02;9.00;;;0.70;;
75367;SDS011;63954;51.948;5.888;2023-02-04T04:23:30;17.27;;;1.90;;
75367;SDS011;63954;51.948;5.888;2023-02-04T04:25:58;7.93;;;3.28;;
75367;SDS011;63954;51.948;5.888;2023-02-04T04:28:25;11.02;;;1.73;;
75367;SDS011;63954;51.948;5.888;2023-02-04T04:30:52;8.05;;;1.42;;
75367;SDS011;63954;51.948;5.888;2023-02-04T04:33:20;12.57;;;1.75;;
75367;SDS011;63954;51.948;5.888;2023-02-04T04:35:47;9.70;;;1.63;;
75367;SDS011;63954;51.948;5.888;2023-02-04T04:38:14;8.90;;;2.13;;
75367;SDS011;63954;51.948;5.888;2023-02-04T04:40:41;18.67;;;2.72;;
75367;SDS011;63954;51.948;5.888;2023-02-04T04:43:09;12.30;;;1.35;;
75367;SDS011;63954;51.948;5.888;2023-02-04T04:45:37;15.52;;;2.00;;
75367;SDS011;63954;51.948;5.888;2023-02-04T04:48:04;16.20;;;1.77;;
75367;SDS011;63954;51.948;5.888;2023-02-04T04:50:31;9.73;;;1.05;;
75367;SDS011;63954;51.948;5.888;2023-02-04T04:52:58;15.95;;;1.80;;
75367;SDS011;63954;51.948;5.888;2023-02-04T04:55:25;11.07;;;1.45;;
75367;SDS011;63954;51.948;5.888;2023-02-04T04:57:53;8.32;;;1.02;;
75367;SDS011;63954;51.948;5.888;2023-02-04T05:00:21;10.95;;;1.40;;
75367;SDS011;63954;51.948;5.888;2023-02-04T05:02:49;10.63;;;1.13;;
75367;SDS011;63954;51.948;5.888;2023-02-04T05:05:16;10.02;;;1.10;;
75367;SDS011;63954;51.948;5.888;2023-02-04T05:07:43;13.60;;;3.15;;
75367;SDS011;63954;51.948;5.888;2023-02-04T05:10:10;12.93;;;1.02;;
75367;SDS011;63954;51.948;5.888;2023-02-04T05:12:37;15.77;;;1.70;;
75367;SDS011;63954;51.948;5.888;2023-02-04T05:15:05;12.98;;;1.58;;
75367;SDS011;63954;51.948;5.888;2023-02-04T05:17:33;14.43;;;2.28;;
75367;SDS011;63954;51.948;5.888;2023-02-04T05:20:01;8.05;;;0.82;;
75367;SDS011;63954;51.948;5.888;2023-02-04T05:22:28;17.45;;;4.22;;
75367;SDS011;63954;51.948;5.888;2023-02-04T05:24:55;14.85;;;2.15;;
75367;SDS011;63954;51.948;5.888;2023-02-04T05:27:31;17.63;;;2.65;;
75367;SDS011;63954;51.948;5.888;2023-02-04T05:29:58;7.97;;;2.08;;
75367;SDS011;63954;51.948;5.888;2023-02-04T05:32:25;9.30;;;1.52;;
75367;SDS011;63954;51.948;5.888;2023-02-04T05:34:54;17.10;;;2.17;;
75367;SDS011;63954;51.948;5.888;2023-02-04T05:37:21;9.23;;;1.52;;
75367;SDS011;63954;51.948;5.888;2023-02-04T05:39:48;12.07;;;3.33;;
75367;SDS011;63954;51.948;5.888;2023-02-04T05:42:15;16.15;;;1.50;;
75367;SDS011;63954;51.948;5.888;2023-02-04T05:44:42;17.00;;;2.13;;
75367;SDS011;63954;51.948;5.888;2023-02-04T05:47:10;10.82;;;1.38;;
75367;SDS011;63954;51.948;5.888;2023-02-04T05:49:37;13.32;;;2.00;;
75367;SDS011;63954;51.948;5.888;2023-02-04T05:52:05;13.20;;;1.52;;
75367;SDS011;63954;51.948;5.888;2023-02-04T05:54:32;16.23;;;1.73;;
75367;SDS011;63954;51.948;5.888;2023-02-04T05:57:00;10.13;;;1.48;;
75367;SDS011;63954;51.948;5.888;2023-02-04T05:59:27;9.75;;;1.25;;
75367;SDS011;63954;51.948;5.888;2023-02-04T06:01:54;11.15;;;2.08;;
75367;SDS011;63954;51.948;5.888;2023-02-04T06:04:21;9.73;;;1.27;;
75367;SDS011;63954;51.948;5.888;2023-02-04T06:06:48;14.43;;;2.70;;
75367;SDS011;63954;51.948;5.888;2023-02-04T06:09:17;10.43;;;1.20;;
75367;SDS011;63954;51.948;5.888;2023-02-04T06:11:44;8.95;;;0.85;;
75367;SDS011;63954;51.948;5.888;2023-02-04T06:14:11;11.52;;;1.42;;
75367;SDS011;63954;51.948;5.888;2023-02-04T06:16:38;9.57;;;1.48;;
75367;SDS011;63954;51.948;5.888;2023-02-04T06:19:05;12.85;;;2.20;;
75367;SDS011;63954;51.948;5.888;2023-02-04T06:21:32;9.30;;;2.10;;
75367;SDS011;63954;51.948;5.888;2023-02-04T06:23:59;11.75;;;2.42;;
75367;SDS011;63954;51.948;5.888;2023-02-04T06:26:28;12.55;;;2.72;;
75367;SDS011;63954;51.948;5.888;2023-02-04T06:28:55;11.13;;;3.30;;
75367;SDS011;63954;51.948;5.888;2023-02-04T06:31:22;10.88;;;0.98;;
75367;SDS011;63954;51.948;5.888;2023-02-04T06:33:49;12.63;;;2.53;;
75367;SDS011;63954;51.948;5.888;2023-02-04T06:36:17;19.48;;;2.25;;
75367;SDS011;63954;51.948;5.888;2023-02-04T06:38:44;8.75;;;1.85;;
75367;SDS011;63954;51.948;5.888;2023-02-04T06:41:11;10.15;;;1.27;;
75367;SDS011;63954;51.948;5.888;2023-02-04T06:43:40;10.05;;;1.67;;
75367;SDS011;63954;51.948;5.888;2023-02-04T06:46:07;25.17;;;4.55;;
75367;SDS011;63954;51.948;5.888;2023-02-04T06:48:34;20.48;;;3.33;;
75367;SDS011;63954;51.948;5.888;2023-02-04T06:51:01;11.88;;;1.75;;
75367;SDS011;63954;51.948;5.888;2023-02-04T06:53:29;12.02;;;2.95;;
75367;SDS011;63954;51.948;5.888;2023-02-04T06:55:56;13.25;;;1.40;;
75367;SDS011;63954;51.948;5.888;2023-02-04T06:58:23;9.93;;;1.77;;
75367;SDS011;63954;51.948;5.888;2023-02-04T07:00:51;12.43;;;0.85;;
75367;SDS011;63954;51.948;5.888;2023-02-04T07:03:19;13.00;;;2.28;;
75367;SDS011;63954;51.948;5.888;2023-02-04T07:05:46;22.27;;;3.40;;
75367;SDS011;63954;51.948;5.888;2023-02-04T07:08:15;23.27;;;4.47;;
75367;SDS011;63954;51.948;5.888;2023-02-04T07:10:42;21.35;;;4.35;;
75367;SDS011;63954;51.948;5.888;2023-02-04T07:13:10;11.50;;;1.83;;
75367;SDS011;63954;51.948;5.888;2023-02-04T07:15:37;19.08;;;3.83;;
75367;SDS011;63954;51.948;5.888;2023-02-04T07:18:05;21.25;;;5.18;;
75367;SDS011;63954;51.948;5.888;2023-02-04T07:20:35;25.23;;;5.13;;
75367;SDS011;63954;51.948;5.888;2023-02-04T07:23:02;24.25;;;4.13;;
75367;SDS011;63954;51.948;5.888;2023-02-04T07:25:29;11.35;;;2.08;;
75367;SDS011;63954;51.948;5.888;2023-02-04T07:27:57;22.73;;;4.75;;
75367;SDS011;63954;51.948;5.888;2023-02-04T07:30:26;16.90;;;3.50;;
75367;SDS011;63954;51.948;5.888;2023-02-04T07:32:53;22.20;;;3.88;;
75367;SDS011;63954;51.948;5.888;2023-02-04T07:35:22;18.83;;;2.85;;
75367;SDS011;63954;51.948;5.888;2023-02-04T07:37:49;20.08;;;4.70;;
75367;SDS011;63954;51.948;5.888;2023-02-04T07:40:16;15.93;;;3.75;;
75367;SDS011;63954;51.948;5.888;2023-02-04T07:42:46;22.48;;;4.30;;
75367;SDS011;63954;51.948;5.888;2023-02-04T07:45:16;14.75;;;2.33;;
75367;SDS011;63954;51.948;5.888;2023-02-04T07:47:44;17.83;;;3.47;;
75367;SDS011;63954;51.948;5.888;2023-02-04T07:50:14;18.98;;;4.50;;
75367;SDS011;63954;51.948;5.888;2023-02-04T07:52:43;21.35;;;4.07;;
75367;SDS011;63954;51.948;5.888;2023-02-04T07:55:10;17.70;;;3.42;;
75367;SDS011;63954;51.948;5.888;2023-02-04T07:57:37;20.52;;;4.22;;
75367;SDS011;63954;51.948;5.888;2023-02-04T08:00:04;17.52;;;3.78;;
75367;SDS011;63954;51.948;5.888;2023-02-04T08:02:38;28.33;;;6.10;;
75367;SDS011;63954;51.948;5.888;2023-02-04T08:05:13;16.98;;;4.00;;
75367;SDS011;63954;51.948;5.888;2023-02-04T08:07:40;20.48;;;6.63;;
75367;SDS011;63954;51.948;5.888;2023-02-04T08:10:11;20.50;;;4.30;;
75367;SDS011;63954;51.948;5.888;2023-02-04T08:12:38;17.27;;;3.63;;
75367;SDS011;63954;51.948;5.888;2023-02-04T08:15:06;22.33;;;4.53;;
75367;SDS011;63954;51.948;5.888;2023-02-04T08:17:34;23.17;;;5.00;;
75367;SDS011;63954;51.948;5.888;2023-02-04T08:20:02;17.42;;;5.00;;
75367;SDS011;63954;51.948;5.888;2023-02-04T08:22:29;18.02;;;4.05;;
75367;SDS011;63954;51.948;5.888;2023-02-04T08:24:56;24.02;;;5.07;;
75367;SDS011;63954;51.948;5.888;2023-02-04T08:27:25;20.13;;;4.43;;
75367;SDS011;63954;51.948;5.888;2023-02-04T08:29:52;12.70;;;4.05;;
75367;SDS011;63954;51.948;5.888;2023-02-04T08:32:22;21.45;;;3.80;;
75367;SDS011;63954;51.948;5.888;2023-02-04T08:34:53;17.17;;;3.95;;
75367;SDS011;63954;51.948;5.888;2023-02-04T08:37:20;18.35;;;3.90;;
75367;SDS011;63954;51.948;5.888;2023-02-04T08:39:47;15.48;;;4.15;;
75367;SDS011;63954;51.948;5.888;2023-02-04T08:42:15;21.23;;;4.13;;
75367;SDS011;63954;51.948;5.888;2023-02-04T08:44:44;16.35;;;3.90;;
75367;SDS011;63954;51.948;5.888;2023-02-04T08:47:12;17.75;;;2.40;;
75367;SDS011;63954;51.948;5.888;2023-02-04T08:49:40;18.33;;;3.95;;
75367;SDS011;63954;51.948;5.888;2023-02-04T08:52:10;26.77;;;5.47;;
75367;SDS011;63954;51.948;5.888;2023-02-04T08:54:37;13.45;;;3.17;;
75367;SDS011;63954;51.948;5.888;2023-02-04T08:57:07;15.23;;;4.35;;
75367;SDS011;63954;51.948;5.888;2023-02-04T08:59:34;20.73;;;4.25;;
75367;SDS011;63954;51.948;5.888;2023-02-04T09:02:05;28.55;;;6.18;;
75367;SDS011;63954;51.948;5.888;2023-02-04T09:04:32;17.30;;;4.47;;
75367;SDS011;63954;51.948;5.888;2023-02-04T09:07:00;18.98;;;4.15;;
75367;SDS011;63954;51.948;5.888;2023-02-04T09:09:30;18.38;;;4.05;;
75367;SDS011;63954;51.948;5.888;2023-02-04T09:12:00;15.88;;;3.10;;
75367;SDS011;63954;51.948;5.888;2023-02-04T09:14:27;19.60;;;4.28;;
75367;SDS011;63954;51.948;5.888;2023-02-04T09:16:55;24.30;;;4.28;;
75367;SDS011;63954;51.948;5.888;2023-02-04T09:19:23;19.45;;;3.92;;
75367;SDS011;63954;51.948;5.888;2023-02-04T09:21:51;15.85;;;2.28;;
75367;SDS011;63954;51.948;5.888;2023-02-04T09:24:18;23.58;;;4.00;;
75367;SDS011;63954;51.948;5.888;2023-02-04T09:26:48;19.02;;;3.65;;
75367;SDS011;63954;51.948;5.888;2023-02-04T09:29:15;24.17;;;4.13;;
75367;SDS011;63954;51.948;5.888;2023-02-04T09:31:45;17.15;;;3.38;;
75367;SDS011;63954;51.948;5.888;2023-02-04T09:34:14;18.23;;;3.90;;
75367;SDS011;63954;51.948;5.888;2023-02-04T09:36:43;22.50;;;3.38;;
75367;SDS011;63954;51.948;5.888;2023-02-04T09:39:10;12.40;;;2.03;;
75367;SDS011;63954;51.948;5.888;2023-02-04T09:44:09;19.58;;;2.45;;
75367;SDS011;63954;51.948;5.888;2023-02-04T09:46:40;21.98;;;3.33;;
75367;SDS011;63954;51.948;5.888;2023-02-04T09:49:09;16.88;;;2.63;;
75367;SDS011;63954;51.948;5.888;2023-02-04T09:51:37;15.68;;;2.65;;
75367;SDS011;63954;51.948;5.888;2023-02-04T09:54:07;19.00;;;3.80;;
75367;SDS011;63954;51.948;5.888;2023-02-04T09:56:38;23.52;;;3.35;;
75367;SDS011;63954;51.948;5.888;2023-02-04T09:59:08;18.25;;;3.67;;
75367;SDS011;63954;51.948;5.888;2023-02-04T10:01:37;16.23;;;2.42;;
75367;SDS011;63954;51.948;5.888;2023-02-04T10:04:07;26.17;;;5.97;;
75367;SDS011;63954;51.948;5.888;2023-02-04T10:06:37;20.45;;;2.95;;
75367;SDS011;63954;51.948;5.888;2023-02-04T10:09:07;18.92;;;3.35;;
75367;SDS011;63954;51.948;5.888;2023-02-04T10:11:36;17.10;;;5.13;;
75367;SDS011;63954;51.948;5.888;2023-02-04T10:14:05;20.48;;;3.88;;
75367;SDS011;63954;51.948;5.888;2023-02-04T10:16:38;17.48;;;2.85;;
75367;SDS011;63954;51.948;5.888;2023-02-04T10:19:10;20.25;;;2.38;;
75367;SDS011;63954;51.948;5.888;2023-02-04T10:21:43;20.08;;;4.50;;
75367;SDS011;63954;51.948;5.888;2023-02-04T10:24:16;18.02;;;3.13;;
75367;SDS011;63954;51.948;5.888;2023-02-04T10:26:48;17.08;;;3.47;;
75367;SDS011;63954;51.948;5.888;2023-02-04T10:29:16;17.48;;;3.40;;
75367;SDS011;63954;51.948;5.888;2023-02-04T10:31:48;20.70;;;3.42;;
75367;SDS011;63954;51.948;5.888;2023-02-04T10:34:17;18.95;;;6.03;;
75367;SDS011;63954;51.948;5.888;2023-02-04T10:36:49;25.90;;;6.03;;
75367;SDS011;63954;51.948;5.888;2023-02-04T10:39:20;15.55;;;3.90;;
75367;SDS011;63954;51.948;5.888;2023-02-04T10:41:51;17.38;;;2.90;;
75367;SDS011;63954;51.948;5.888;2023-02-04T10:44:20;20.48;;;3.38;;
75367;SDS011;63954;51.948;5.888;2023-02-04T10:46:57;21.58;;;3.10;;
75367;SDS011;63954;51.948;5.888;2023-02-04T10:49:50;14.48;;;2.13;;
75367;SDS011;63954;51.948;5.888;2023-02-04T10:54:53;15.95;;;3.50;;
75367;SDS011;63954;51.948;5.888;2023-02-04T10:57:26;20.83;;;2.60;;
75367;SDS011;63954;51.948;5.888;2023-02-04T10:59:56;21.70;;;4.40;;
75367;SDS011;63954;51.948;5.888;2023-02-04T11:02:32;25.63;;;5.13;;
75367;SDS011;63954;51.948;5.888;2023-02-04T11:05:14;24.63;;;5.30;;
75367;SDS011;63954;51.948;5.888;2023-02-04T11:07:50;21.75;;;3.00;;
75367;SDS011;63954;51.948;5.888;2023-02-04T11:10:21;24.48;;;5.40;;
75367;SDS011;63954;51.948;5.888;2023-02-04T11:13:01;18.63;;;3.40;;
75367;SDS011;63954;51.948;5.888;2023-02-04T11:15:35;21.65;;;2.47;;
75367;SDS011;63954;51.948;5.888;2023-02-04T11:18:05;20.77;;;2.95;;
75367;SDS011;63954;51.948;5.888;2023-02-04T11:20:34;22.58;;;4.97;;
75367;SDS011;63954;51.948;5.888;2023-02-04T11:26:11;16.52;;;1.63;;
75367;SDS011;63954;51.948;5.888;2023-02-04T11:28:48;15.85;;;3.13;;
75367;SDS011;63954;51.948;5.888;2023-02-04T11:31:41;24.48;;;4.15;;
75367;SDS011;63954;51.948;5.888;2023-02-04T11:34:23;23.48;;;3.08;;
75367;SDS011;63954;51.948;5.888;2023-02-04T11:37:17;17.77;;;2.42;;
75367;SDS011;63954;51.948;5.888;2023-02-04T11:39:59;15.90;;;2.38;;
75367;SDS011;63954;51.948;5.888;2023-02-04T11:42:39;14.15;;;2.03;;
75367;SDS011;63954;51.948;5.888;2023-02-04T11:45:11;19.13;;;3.05;;
75367;SDS011;63954;51.948;5.888;2023-02-04T11:47:43;15.50;;;2.53;;
75367;SDS011;63954;51.948;5.888;2023-02-04T11:50:15;17.30;;;2.33;;
75367;SDS011;63954;51.948;5.888;2023-02-04T11:52:46;13.02;;;3.58;;
75367;SDS011;63954;51.948;5.888;2023-02-04T11:55:13;16.10;;;2.05;;
75367;SDS011;63954;51.948;5.888;2023-02-04T11:57:42;17.15;;;2.88;;
75367;SDS011;63954;51.948;5.888;2023-02-04T12:00:13;26.38;;;3.55;;
75367;SDS011;63954;51.948;5.888;2023-02-04T12:02:43;29.58;;;4.50;;
75367;SDS011;63954;51.948;5.888;2023-02-04T12:05:12;22.02;;;3.63;;
75367;SDS011;63954;51.948;5.888;2023-02-04T12:07:40;17.60;;;2.75;;
75367;SDS011;63954;51.948;5.888;2023-02-04T12:10:12;22.17;;;2.88;;
75367;SDS011;63954;51.948;5.888;2023-02-04T12:12:43;15.05;;;1.98;;
75367;SDS011;63954;51.948;5.888;2023-02-04T12:15:14;13.18;;;2.30;;
75367;SDS011;63954;51.948;5.888;2023-02-04T12:17:59;19.27;;;4.35;;
75367;SDS011;63954;51.948;5.888;2023-02-04T12:20:27;19.60;;;2.92;;
75367;SDS011;63954;51.948;5.888;2023-02-04T12:22:54;20.10;;;2.90;;
75367;SDS011;63954;51.948;5.888;2023-02-04T12:25:21;25.38;;;4.15;;
75367;SDS011;63954;51.948;5.888;2023-02-04T12:27:50;21.10;;;2.95;;
75367;SDS011;63954;51.948;5.888;2023-02-04T12:30:19;21.42;;;3.13;;
75367;SDS011;63954;51.948;5.888;2023-02-04T12:32:46;16.92;;;4.10;;
75367;SDS011;63954;51.948;5.888;2023-02-04T12:35:14;16.20;;;2.08;;
75367;SDS011;63954;51.948;5.888;2023-02-04T12:37:41;17.20;;;2.40;;
75367;SDS011;63954;51.948;5.888;2023-02-04T12:40:09;19.88;;;3.08;;
75367;SDS011;63954;51.948;5.888;2023-02-04T12:42:41;17.58;;;2.13;;
75367;SDS011;63954;51.948;5.888;2023-02-04T12:45:10;17.77;;;3.00;;
75367;SDS011;63954;51.948;5.888;2023-02-04T12:47:38;15.40;;;2.10;;
75367;SDS011;63954;51.948;5.888;2023-02-04T12:50:06;14.35;;;2.33;;
75367;SDS011;63954;51.948;5.888;2023-02-04T12:52:34;17.90;;;2.45;;
75367;SDS011;63954;51.948;5.888;2023-02-04T12:55:01;13.35;;;1.77;;
75367;SDS011;63954;51.948;5.888;2023-02-04T12:57:29;21.55;;;2.35;;
75367;SDS011;63954;51.948;5.888;2023-02-04T12:59:56;24.23;;;2.67;;
75367;SDS011;63954;51.948;5.888;2023-02-04T13:02:27;20.58;;;3.00;;
75367;SDS011;63954;51.948;5.888;2023-02-04T13:04:55;19.02;;;2.78;;
75367;SDS011;63954;51.948;5.888;2023-02-04T13:07:22;15.50;;;2.70;;
75367;SDS011;63954;51.948;5.888;2023-02-04T13:09:50;14.13;;;1.83;;
75367;SDS011;63954;51.948;5.888;2023-02-04T13:12:17;18.20;;;2.15;;
75367;SDS011;63954;51.948;5.888;2023-02-04T13:14:44;22.77;;;2.90;;
75367;SDS011;63954;51.948;5.888;2023-02-04T13:17:12;19.23;;;2.20;;
75367;SDS011;63954;51.948;5.888;2023-02-04T13:19:40;11.05;;;1.45;;
75367;SDS011;63954;51.948;5.888;2023-02-04T13:22:07;20.45;;;2.97;;
75367;SDS011;63954;51.948;5.888;2023-02-04T13:24:34;9.38;;;1.20;;
75367;SDS011;63954;51.948;5.888;2023-02-04T13:27:02;19.30;;;2.33;;
75367;SDS011;63954;51.948;5.888;2023-02-04T13:29:29;19.02;;;2.22;;
75367;SDS011;63954;51.948;5.888;2023-02-04T13:31:56;10.57;;;1.52;;
75367;SDS011;63954;51.948;5.888;2023-02-04T13:34:23;19.05;;;2.60;;
75367;SDS011;63954;51.948;5.888;2023-02-04T13:36:52;11.95;;;1.42;;
75367;SDS011;63954;51.948;5.888;2023-02-04T13:39:19;19.25;;;2.45;;
75367;SDS011;63954;51.948;5.888;2023-02-04T13:41:46;20.38;;;3.70;;
75367;SDS011;63954;51.948;5.888;2023-02-04T13:44:13;19.05;;;3.30;;
75367;SDS011;63954;51.948;5.888;2023-02-04T13:46:41;11.55;;;1.42;;
75367;SDS011;63954;51.948;5.888;2023-02-04T13:49:08;14.50;;;1.90;;
75367;SDS011;63954;51.948;5.888;2023-02-04T13:51:35;13.32;;;1.67;;
75367;SDS011;63954;51.948;5.888;2023-02-04T13:54:06;14.38;;;1.52;;
75367;SDS011;63954;51.948;5.888;2023-02-04T13:56:33;13.85;;;1.50;;
75367;SDS011;63954;51.948;5.888;2023-02-04T13:59:02;17.17;;;3.03;;
75367;SDS011;63954;51.948;5.888;2023-02-04T14:01:29;14.05;;;1.63;;
75367;SDS011;63954;51.948;5.888;2023-02-04T14:03:56;17.10;;;2.38;;
75367;SDS011;63954;51.948;5.888;2023-02-04T14:06:23;9.65;;;1.65;;
75367;SDS011;63954;51.948;5.888;2023-02-04T14:08:57;13.63;;;1.45;;
75367;SDS011;63954;51.948;5.888;2023-02-04T14:11:27;17.27;;;3.03;;
75367;SDS011;63954;51.948;5.888;2023-02-04T14:13:54;18.00;;;2.75;;
75367;SDS011;63954;51.948;5.888;2023-02-04T14:16:21;14.95;;;1.92;;
75367;SDS011;63954;51.948;5.888;2023-02-04T14:18:49;16.55;;;2.25;;
75367;SDS011;63954;51.948;5.888;2023-02-04T14:21:16;15.77;;;2.22;;
75367;SDS011;63954;51.948;5.888;2023-02-04T14:23:44;12.82;;;2.38;;
75367;SDS011;63954;51.948;5.888;2023-02-04T14:26:11;15.70;;;2.42;;
75367;SDS011;63954;51.948;5.888;2023-02-04T14:28:39;16.45;;;1.92;;
75367;SDS011;63954;51.948;5.888;2023-02-04T14:31:06;13.63;;;1.50;;
75367;SDS011;63954;51.948;5.888;2023-02-04T14:33:34;8.38;;;1.08;;
75367;SDS011;63954;51.948;5.888;2023-02-04T14:36:01;12.55;;;0.90;;
75367;SDS011;63954;51.948;5.888;2023-02-04T14:38:28;9.85;;;2.30;;
75367;SDS011;63954;51.948;5.888;2023-02-04T14:40:57;6.47;;;0.85;;
75367;SDS011;63954;51.948;5.888;2023-02-04T14:43:24;8.85;;;0.80;;
75367;SDS011;63954;51.948;5.888;2023-02-04T14:45:53;9.23;;;1.10;;
75367;SDS011;63954;51.948;5.888;2023-02-04T14:48:20;8.38;;;1.45;;
75367;SDS011;63954;51.948;5.888;2023-02-04T14:50:48;10.98;;;1.95;;
75367;SDS011;63954;51.948;5.888;2023-02-04T14:53:15;9.05;;;1.08;;
75367;SDS011;63954;51.948;5.888;2023-02-04T14:55:42;12.10;;;1.08;;
75367;SDS011;63954;51.948;5.888;2023-02-04T14:58:09;9.52;;;0.85;;
75367;SDS011;63954;51.948;5.888;2023-02-04T15:00:38;12.10;;;0.98;;